Dearborn Heights, Michigan
Current Conditions -  °F | °C
As of 5:53 PM on Thursday 18 Dec 2014 (Local Time) from KDTW Reporting Station
Light Snow Light Snow  
Wind Chill: 32°   Ceiling: 1800
Heat Index: 32°   Visibility: 8mi
Dew Point: 28°   Wind: 3mph
Humidity: 85%   Direction: 250°WSW
Pressure: 30.18"   Gusts: NA
Location:  42.33°N, 83.28°W
Report Text: KDTW 182253Z 25003KT 8SM -SN OVC018 00/M02 A3018 RMK AO2 SNB28 SLP226 P0000 T00001022
Loading
Personal Weather Stations






























Interactive Weather Map New forecast layout! Learn more

10-Day Weather Forecast

Advertisements
Track Severe Weather on mobile